sensor_id;sensor_type;location;lat;lon;timestamp;temperature;humidity
42973;DHT22;28610;51.214;6.962;2022-11-15T00:01:15;11.10;99.90
42973;DHT22;28610;51.214;6.962;2022-11-15T00:04:01;11.10;99.90
42973;DHT22;28610;51.214;6.962;2022-11-15T00:06:47;11.10;99.90
42973;DHT22;28610;51.214;6.962;2022-11-15T00:09:32;11.10;99.90
42973;DHT22;28610;51.214;6.962;2022-11-15T00:12:18;11.20;99.90
42973;DHT22;28610;51.214;6.962;2022-11-15T00:15:04;11.20;99.90
42973;DHT22;28610;51.214;6.962;2022-11-15T00:17:51;11.20;99.90
42973;DHT22;28610;51.214;6.962;2022-11-15T00:20:36;11.20;99.90
42973;DHT22;28610;51.214;6.962;2022-11-15T00:23:22;11.30;99.90
42973;DHT22;28610;51.214;6.962;2022-11-15T00:26:11;11.30;99.90
42973;DHT22;28610;51.214;6.962;2022-11-15T00:28:56;11.30;99.90
42973;DHT22;28610;51.214;6.962;2022-11-15T00:31:41;11.40;99.90
42973;DHT22;28610;51.214;6.962;2022-11-15T00:34:28;11.40;99.90
42973;DHT22;28610;51.214;6.962;2022-11-15T00:37:14;11.40;99.90
42973;DHT22;28610;51.214;6.962;2022-11-15T00:40:00;11.40;99.90
42973;DHT22;28610;51.214;6.962;2022-11-15T00:42:45;11.40;99.90
42973;DHT22;28610;51.214;6.962;2022-11-15T00:45:31;11.40;99.90
42973;DHT22;28610;51.214;6.962;2022-11-15T00:48:16;11.50;99.90
42973;DHT22;28610;51.214;6.962;2022-11-15T00:51:03;11.50;99.90
42973;DHT22;28610;51.214;6.962;2022-11-15T00:53:48;11.60;99.90
42973;DHT22;28610;51.214;6.962;2022-11-15T00:56:34;11.60;99.90
42973;DHT22;28610;51.214;6.962;2022-11-15T00:59:19;11.60;99.90
42973;DHT22;28610;51.214;6.962;2022-11-15T01:02:04;11.70;99.90
42973;DHT22;28610;51.214;6.962;2022-11-15T01:04:50;11.70;99.90
42973;DHT22;28610;51.214;6.962;2022-11-15T01:07:37;11.70;99.90
42973;DHT22;28610;51.214;6.962;2022-11-15T01:10:22;11.70;99.90
42973;DHT22;28610;51.214;6.962;2022-11-15T01:13:09;11.80;99.90
42973;DHT22;28610;51.214;6.962;2022-11-15T01:15:55;11.90;99.90
42973;DHT22;28610;51.214;6.962;2022-11-15T01:18:41;11.80;99.90
42973;DHT22;28610;51.214;6.962;2022-11-15T01:21:26;11.80;99.90
42973;DHT22;28610;51.214;6.962;2022-11-15T01:24:13;11.90;99.90
42973;DHT22;28610;51.214;6.962;2022-11-15T01:26:58;11.90;99.90
42973;DHT22;28610;51.214;6.962;2022-11-15T01:29:44;11.90;99.90
42973;DHT22;28610;51.214;6.962;2022-11-15T01:32:29;11.90;99.90
42973;DHT22;28610;51.214;6.962;2022-11-15T01:35:15;11.90;99.90
42973;DHT22;28610;51.214;6.962;2022-11-15T01:38:01;11.90;99.90
42973;DHT22;28610;51.214;6.962;2022-11-15T01:40:48;11.90;99.90
42973;DHT22;28610;51.214;6.962;2022-11-15T01:43:35;11.90;99.90
42973;DHT22;28610;51.214;6.962;2022-11-15T01:46:29;12.00;99.90
42973;DHT22;28610;51.214;6.962;2022-11-15T01:49:18;12.00;99.90
42973;DHT22;28610;51.214;6.962;2022-11-15T01:52:11;12.00;99.90
42973;DHT22;28610;51.214;6.962;2022-11-15T01:55:02;11.90;99.90
42973;DHT22;28610;51.214;6.962;2022-11-15T01:57:52;12.00;99.90
42973;DHT22;28610;51.214;6.962;2022-11-15T02:00:38;12.00;99.90
42973;DHT22;28610;51.214;6.962;2022-11-15T02:03:28;12.10;99.90
42973;DHT22;28610;51.214;6.962;2022-11-15T02:06:16;12.10;99.90
42973;DHT22;28610;51.214;6.962;2022-11-15T02:09:02;12.00;99.90
42973;DHT22;28610;51.214;6.962;2022-11-15T02:11:48;12.10;99.90
42973;DHT22;28610;51.214;6.962;2022-11-15T02:14:37;12.10;99.90
42973;DHT22;28610;51.214;6.962;2022-11-15T02:17:36;12.20;99.90
42973;DHT22;28610;51.214;6.962;2022-11-15T02:20:41;12.10;99.90
42973;DHT22;28610;51.214;6.962;2022-11-15T02:23:55;12.10;99.90
42973;DHT22;28610;51.214;6.962;2022-11-15T02:27:12;12.20;99.90
42973;DHT22;28610;51.214;6.962;2022-11-15T02:30:22;12.20;99.90
42973;DHT22;28610;51.214;6.962;2022-11-15T02:33:17;12.20;99.90
42973;DHT22;28610;51.214;6.962;2022-11-15T02:36:10;12.20;99.90
42973;DHT22;28610;51.214;6.962;2022-11-15T02:39:03;12.20;99.90
42973;DHT22;28610;51.214;6.962;2022-11-15T02:41:53;12.20;99.90
42973;DHT22;28610;51.214;6.962;2022-11-15T02:44:43;12.20;99.90
42973;DHT22;28610;51.214;6.962;2022-11-15T02:47:35;12.20;99.90
42973;DHT22;28610;51.214;6.962;2022-11-15T02:50:26;12.20;99.90
42973;DHT22;28610;51.214;6.962;2022-11-15T02:53:14;12.20;99.90
42973;DHT22;28610;51.214;6.962;2022-11-15T02:56:00;12.20;99.90
42973;DHT22;28610;51.214;6.962;2022-11-15T02:58:58;12.20;99.90
42973;DHT22;28610;51.214;6.962;2022-11-15T03:01:56;12.20;99.90
42973;DHT22;28610;51.214;6.962;2022-11-15T03:04:53;12.20;99.90
42973;DHT22;28610;51.214;6.962;2022-11-15T03:07:44;12.30;99.90
42973;DHT22;28610;51.214;6.962;2022-11-15T03:10:41;12.20;99.90
42973;DHT22;28610;51.214;6.962;2022-11-15T03:13:33;12.20;99.90
42973;DHT22;28610;51.214;6.962;2022-11-15T03:16:25;12.30;99.90
42973;DHT22;28610;51.214;6.962;2022-11-15T03:19:14;12.30;99.90
42973;DHT22;28610;51.214;6.962;2022-11-15T03:22:04;12.30;99.90
42973;DHT22;28610;51.214;6.962;2022-11-15T03:24:53;12.30;99.90
42973;DHT22;28610;51.214;6.962;2022-11-15T03:27:43;12.40;99.90
42973;DHT22;28610;51.214;6.962;2022-11-15T03:30:32;12.30;99.90
42973;DHT22;28610;51.214;6.962;2022-11-15T03:33:21;12.30;99.90
42973;DHT22;28610;51.214;6.962;2022-11-15T03:36:07;12.40;99.90
42973;DHT22;28610;51.214;6.962;2022-11-15T03:38:56;12.40;99.90
42973;DHT22;28610;51.214;6.962;2022-11-15T03:41:48;12.40;99.90
42973;DHT22;28610;51.214;6.962;2022-11-15T03:44:41;12.40;99.90
42973;DHT22;28610;51.214;6.962;2022-11-15T03:47:30;12.30;99.90
42973;DHT22;28610;51.214;6.962;2022-11-15T03:50:19;12.30;99.90
42973;DHT22;28610;51.214;6.962;2022-11-15T03:53:05;12.40;99.90
42973;DHT22;28610;51.214;6.962;2022-11-15T03:55:52;12.40;99.90
42973;DHT22;28610;51.214;6.962;2022-11-15T03:58:37;12.40;99.90
42973;DHT22;28610;51.214;6.962;2022-11-15T04:01:22;12.40;99.90
42973;DHT22;28610;51.214;6.962;2022-11-15T04:04:08;12.40;99.90
42973;DHT22;28610;51.214;6.962;2022-11-15T04:06:53;12.40;99.90
42973;DHT22;28610;51.214;6.962;2022-11-15T04:09:39;12.40;99.90
42973;DHT22;28610;51.214;6.962;2022-11-15T04:12:41;12.40;99.90
42973;DHT22;28610;51.214;6.962;2022-11-15T04:15:27;12.40;99.90
42973;DHT22;28610;51.214;6.962;2022-11-15T04:18:12;12.40;99.90
42973;DHT22;28610;51.214;6.962;2022-11-15T04:20:58;12.40;99.90
42973;DHT22;28610;51.214;6.962;2022-11-15T04:24:01;12.40;99.90
42973;DHT22;28610;51.214;6.962;2022-11-15T04:26:59;12.40;99.90
42973;DHT22;28610;51.214;6.962;2022-11-15T04:29:45;12.30;99.90
42973;DHT22;28610;51.214;6.962;2022-11-15T04:32:31;12.20;99.90
42973;DHT22;28610;51.214;6.962;2022-11-15T04:35:16;12.20;99.90
42973;DHT22;28610;51.214;6.962;2022-11-15T04:38:04;12.10;99.90
42973;DHT22;28610;51.214;6.962;2022-11-15T04:40:50;12.00;99.90
42973;DHT22;28610;51.214;6.962;2022-11-15T04:43:35;12.00;99.90
42973;DHT22;28610;51.214;6.962;2022-11-15T04:46:22;12.00;99.90
42973;DHT22;28610;51.214;6.962;2022-11-15T04:49:08;12.00;99.90
42973;DHT22;28610;51.214;6.962;2022-11-15T04:51:54;12.00;99.90
42973;DHT22;28610;51.214;6.962;2022-11-15T04:54:39;12.00;99.90
42973;DHT22;28610;51.214;6.962;2022-11-15T04:57:26;12.00;99.90
42973;DHT22;28610;51.214;6.962;2022-11-15T05:00:13;12.00;99.90
42973;DHT22;28610;51.214;6.962;2022-11-15T05:03:00;12.00;99.90
42973;DHT22;28610;51.214;6.962;2022-11-15T05:06:04;12.00;99.90
42973;DHT22;28610;51.214;6.962;2022-11-15T05:08:49;12.00;99.90
42973;DHT22;28610;51.214;6.962;2022-11-15T05:11:34;12.10;99.90
42973;DHT22;28610;51.214;6.962;2022-11-15T05:14:20;12.10;99.90
42973;DHT22;28610;51.214;6.962;2022-11-15T05:17:05;12.10;99.90
42973;DHT22;28610;51.214;6.962;2022-11-15T05:19:52;12.20;99.90
42973;DHT22;28610;51.214;6.962;2022-11-15T05:22:38;12.20;99.90
42973;DHT22;28610;51.214;6.962;2022-11-15T05:25:24;12.20;99.90
42973;DHT22;28610;51.214;6.962;2022-11-15T05:28:09;12.20;99.90
42973;DHT22;28610;51.214;6.962;2022-11-15T05:31:00;12.30;99.90
42973;DHT22;28610;51.214;6.962;2022-11-15T05:33:46;12.30;99.90
42973;DHT22;28610;51.214;6.962;2022-11-15T05:36:35;12.30;99.90
42973;DHT22;28610;51.214;6.962;2022-11-15T05:39:21;12.30;99.90
42973;DHT22;28610;51.214;6.962;2022-11-15T05:42:09;12.30;99.90
42973;DHT22;28610;51.214;6.962;2022-11-15T05:44:56;12.30;99.90
42973;DHT22;28610;51.214;6.962;2022-11-15T05:47:43;12.30;99.90
42973;DHT22;28610;51.214;6.962;2022-11-15T05:50:29;12.40;99.90
42973;DHT22;28610;51.214;6.962;2022-11-15T05:53:18;12.40;99.90
42973;DHT22;28610;51.214;6.962;2022-11-15T05:56:05;12.30;99.90
42973;DHT22;28610;51.214;6.962;2022-11-15T05:58:52;12.40;99.90
42973;DHT22;28610;51.214;6.962;2022-11-15T06:01:38;12.40;99.90
42973;DHT22;28610;51.214;6.962;2022-11-15T06:04:23;12.40;99.90
42973;DHT22;28610;51.214;6.962;2022-11-15T06:18:23;12.40;99.90
42973;DHT22;28610;51.214;6.962;2022-11-15T06:21:08;12.40;99.90
42973;DHT22;28610;51.214;6.962;2022-11-15T06:23:54;12.40;99.90
42973;DHT22;28610;51.214;6.962;2022-11-15T06:26:39;12.40;99.90
42973;DHT22;28610;51.214;6.962;2022-11-15T06:29:25;12.40;99.90
42973;DHT22;28610;51.214;6.962;2022-11-15T06:32:10;12.40;99.90
42973;DHT22;28610;51.214;6.962;2022-11-15T06:34:57;12.40;99.90
42973;DHT22;28610;51.214;6.962;2022-11-15T06:38:02;12.40;99.90
42973;DHT22;28610;51.214;6.962;2022-11-15T06:40:47;12.40;99.90
42973;DHT22;28610;51.214;6.962;2022-11-15T06:43:33;12.40;99.90
42973;DHT22;28610;51.214;6.962;2022-11-15T06:46:19;12.40;99.90
42973;DHT22;28610;51.214;6.962;2022-11-15T06:49:04;12.30;99.90
42973;DHT22;28610;51.214;6.962;2022-11-15T06:51:51;12.20;99.90
42973;DHT22;28610;51.214;6.962;2022-11-15T06:54:36;12.20;99.90
42973;DHT22;28610;51.214;6.962;2022-11-15T06:57:22;12.20;99.90
42973;DHT22;28610;51.214;6.962;2022-11-15T07:00:09;12.20;99.90
42973;DHT22;28610;51.214;6.962;2022-11-15T07:02:54;12.20;99.90
42973;DHT22;28610;51.214;6.962;2022-11-15T07:05:40;12.20;99.90
42973;DHT22;28610;51.214;6.962;2022-11-15T07:08:28;12.30;99.90
42973;DHT22;28610;51.214;6.962;2022-11-15T07:11:13;12.30;99.90
42973;DHT22;28610;51.214;6.962;2022-11-15T07:13:59;12.30;99.90
42973;DHT22;28610;51.214;6.962;2022-11-15T07:16:45;12.30;99.90
42973;DHT22;28610;51.214;6.962;2022-11-15T07:19:31;12.20;99.90
42973;DHT22;28610;51.214;6.962;2022-11-15T07:22:16;12.20;99.90
42973;DHT22;28610;51.214;6.962;2022-11-15T07:25:03;12.20;99.90
42973;DHT22;28610;51.214;6.962;2022-11-15T07:27:54;12.20;99.90
42973;DHT22;28610;51.214;6.962;2022-11-15T07:30:40;12.20;99.90
42973;DHT22;28610;51.214;6.962;2022-11-15T07:33:25;12.20;99.90
42973;DHT22;28610;51.214;6.962;2022-11-15T07:36:11;12.20;99.90
42973;DHT22;28610;51.214;6.962;2022-11-15T07:38:56;12.30;99.90
42973;DHT22;28610;51.214;6.962;2022-11-15T07:41:43;12.30;99.80
42973;DHT22;28610;51.214;6.962;2022-11-15T07:44:28;12.30;99.70
42973;DHT22;28610;51.214;6.962;2022-11-15T07:47:14;12.20;99.70
42973;DHT22;28610;51.214;6.962;2022-11-15T07:49:59;12.30;99.70
42973;DHT22;28610;51.214;6.962;2022-11-15T07:52:45;12.30;99.30
42973;DHT22;28610;51.214;6.962;2022-11-15T07:55:30;12.40;99.20
42973;DHT22;28610;51.214;6.962;2022-11-15T07:58:17;12.40;99.00
42973;DHT22;28610;51.214;6.962;2022-11-15T08:01:03;12.50;98.40
42973;DHT22;28610;51.214;6.962;2022-11-15T08:03:48;12.40;98.50
42973;DHT22;28610;51.214;6.962;2022-11-15T08:06:34;12.50;98.40
42973;DHT22;28610;51.214;6.962;2022-11-15T08:09:19;12.40;98.50
42973;DHT22;28610;51.214;6.962;2022-11-15T08:12:05;12.50;98.40
42973;DHT22;28610;51.214;6.962;2022-11-15T08:14:52;12.40;98.20
42973;DHT22;28610;51.214;6.962;2022-11-15T08:17:37;12.30;98.20
42973;DHT22;28610;51.214;6.962;2022-11-15T08:20:23;12.20;98.50
42973;DHT22;28610;51.214;6.962;2022-11-15T08:23:11;12.20;98.90
42973;DHT22;28610;51.214;6.962;2022-11-15T08:26:00;12.20;99.00
42973;DHT22;28610;51.214;6.962;2022-11-15T08:28:46;12.20;98.70
42973;DHT22;28610;51.214;6.962;2022-11-15T08:31:33;12.30;98.30
42973;DHT22;28610;51.214;6.962;2022-11-15T08:34:19;12.30;98.40
42973;DHT22;28610;51.214;6.962;2022-11-15T08:37:04;12.30;98.30
42973;DHT22;28610;51.214;6.962;2022-11-15T08:39:49;12.40;98.10
42973;DHT22;28610;51.214;6.962;2022-11-15T08:42:35;12.50;98.10
42973;DHT22;28610;51.214;6.962;2022-11-15T08:45:21;12.50;97.70
42973;DHT22;28610;51.214;6.962;2022-11-15T08:48:08;12.40;97.80
42973;DHT22;28610;51.214;6.962;2022-11-15T08:50:53;12.40;97.50
42973;DHT22;28610;51.214;6.962;2022-11-15T08:53:39;12.40;97.30
42973;DHT22;28610;51.214;6.962;2022-11-15T08:56:24;12.40;97.20
42973;DHT22;28610;51.214;6.962;2022-11-15T08:59:10;12.40;97.60
42973;DHT22;28610;51.214;6.962;2022-11-15T09:01:55;12.40;97.20
42973;DHT22;28610;51.214;6.962;2022-11-15T09:04:43;12.40;97.30
42973;DHT22;28610;51.214;6.962;2022-11-15T09:07:28;12.60;97.40
42973;DHT22;28610;51.214;6.962;2022-11-15T09:10:15;12.50;96.50
42973;DHT22;28610;51.214;6.962;2022-11-15T09:13:00;12.50;96.80
42973;DHT22;28610;51.214;6.962;2022-11-15T09:15:46;12.60;96.50
42973;DHT22;28610;51.214;6.962;2022-11-15T09:18:31;12.50;96.20
42973;DHT22;28610;51.214;6.962;2022-11-15T09:21:18;12.50;96.40
42973;DHT22;28610;51.214;6.962;2022-11-15T09:24:04;12.60;96.50
42973;DHT22;28610;51.214;6.962;2022-11-15T09:26:50;12.60;96.30
42973;DHT22;28610;51.214;6.962;2022-11-15T09:29:35;12.70;95.90
42973;DHT22;28610;51.214;6.962;2022-11-15T09:32:21;12.60;95.70
42973;DHT22;28610;51.214;6.962;2022-11-15T09:35:07;12.70;95.70
42973;DHT22;28610;51.214;6.962;2022-11-15T09:37:54;12.70;94.90
42973;DHT22;28610;51.214;6.962;2022-11-15T09:40:40;12.90;95.00
42973;DHT22;28610;51.214;6.962;2022-11-15T09:43:32;13.00;94.50
42973;DHT22;28610;51.214;6.962;2022-11-15T09:46:32;13.20;94.10
42973;DHT22;28610;51.214;6.962;2022-11-15T09:49:21;13.20;92.90
42973;DHT22;28610;51.214;6.962;2022-11-15T09:52:07;13.20;93.20
42973;DHT22;28610;51.214;6.962;2022-11-15T09:54:56;13.30;93.70
42973;DHT22;28610;51.214;6.962;2022-11-15T09:57:46;13.30;91.70
42973;DHT22;28610;51.214;6.962;2022-11-15T10:00:38;13.30;91.10
42973;DHT22;28610;51.214;6.962;2022-11-15T10:03:28;13.50;90.30
42973;DHT22;28610;51.214;6.962;2022-11-15T10:06:22;13.90;88.60
42973;DHT22;28610;51.214;6.962;2022-11-15T10:09:14;14.20;84.10
42973;DHT22;28610;51.214;6.962;2022-11-15T10:12:02;14.50;81.90
42973;DHT22;28610;51.214;6.962;2022-11-15T10:14:50;14.90;79.30
42973;DHT22;28610;51.214;6.962;2022-11-15T10:17:54;15.50;76.40
42973;DHT22;28610;51.214;6.962;2022-11-15T10:20:46;15.80;74.10
42973;DHT22;28610;51.214;6.962;2022-11-15T10:23:32;16.50;72.20
42973;DHT22;28610;51.214;6.962;2022-11-15T10:26:17;16.40;72.30
42973;DHT22;28610;51.214;6.962;2022-11-15T10:29:04;16.40;70.20
42973;DHT22;28610;51.214;6.962;2022-11-15T10:31:49;16.40;70.40
42973;DHT22;28610;51.214;6.962;2022-11-15T10:34:35;16.60;68.60
42973;DHT22;28610;51.214;6.962;2022-11-15T10:37:28;17.00;67.90
42973;DHT22;28610;51.214;6.962;2022-11-15T10:40:17;17.40;63.40
42973;DHT22;28610;51.214;6.962;2022-11-15T10:43:15;17.30;61.20
42973;DHT22;28610;51.214;6.962;2022-11-15T10:46:18;17.10;59.80
42973;DHT22;28610;51.214;6.962;2022-11-15T10:49:13;16.70;59.80
42973;DHT22;28610;51.214;6.962;2022-11-15T10:52:01;16.90;60.70
42973;DHT22;28610;51.214;6.962;2022-11-15T10:54:49;16.40;62.40
42973;DHT22;28610;51.214;6.962;2022-11-15T10:57:37;16.60;63.10
42973;DHT22;28610;51.214;6.962;2022-11-15T11:00:37;16.90;60.70
42973;DHT22;28610;51.214;6.962;2022-11-15T11:03:29;17.10;58.40
42973;DHT22;28610;51.214;6.962;2022-11-15T11:06:17;16.70;59.00
42973;DHT22;28610;51.214;6.962;2022-11-15T11:09:05;16.50;60.40
42973;DHT22;28610;51.214;6.962;2022-11-15T11:11:52;17.20;57.50
42973;DHT22;28610;51.214;6.962;2022-11-15T11:14:38;17.90;54.20
42973;DHT22;28610;51.214;6.962;2022-11-15T11:17:32;18.60;51.70
42973;DHT22;28610;51.214;6.962;2022-11-15T11:20:25;19.10;48.60
42973;DHT22;28610;51.214;6.962;2022-11-15T11:23:23;17.50;54.60
42973;DHT22;28610;51.214;6.962;2022-11-15T11:26:30;16.20;58.50
42973;DHT22;28610;51.214;6.962;2022-11-15T11:29:26;15.50;62.00
42973;DHT22;28610;51.214;6.962;2022-11-15T11:32:27;15.60;63.60
42973;DHT22;28610;51.214;6.962;2022-11-15T11:35:21;15.40;63.90
42973;DHT22;28610;51.214;6.962;2022-11-15T11:38:23;15.30;65.40
42973;DHT22;28610;51.214;6.962;2022-11-15T11:41:17;15.30;65.40
42973;DHT22;28610;51.214;6.962;2022-11-15T11:44:15;15.50;64.90
42973;DHT22;28610;51.214;6.962;2022-11-15T11:47:09;15.50;62.30
42973;DHT22;28610;51.214;6.962;2022-11-15T11:49:59;15.90;63.30
42973;DHT22;28610;51.214;6.962;2022-11-15T11:52:56;15.60;61.00
